Hopkinsville, KY

6:18 PM CST on February 28, 2015 (GMT -0600)
Calvin Drive | Change Station
CLOSE
Current Station
Personal Weather Station
Location: Hopkinsville, KY
Elevation: 541 ft
Nearby Weather Stations

Elev 541 ft 36.84 °N, 87.47 °W | Updated 10 seconds ago

Overcast
Overcast
35.6 °F
Feels Like 36 °F
N
2.2
Wind Variable Wind from East
Gusts 2.2 mph

Today
High -- | Low -- °F
--% Chance of Precip.
Yesterday
High -- | Low -- °F
Precip. -- in
6:22 AM 5:43 PM
Waxing Gibbous, 81% visible
Pressure 30.46 in
Visibility 10.0 miles
Clouds Scattered Clouds 8000 ft
Scattered Clouds 11000 ft
Windchill 36 °F
Dew Point 25 °F
Humidity 65%
Rainfall 0.00 in
Snow Depth Not available.
UV 0 out of 12
Pollen 3.60 out of 12
Air Quality Not available.
Flu Activity Not available.
METAR KHOP 282358Z AUTO 06005KT 10SM SCT080 SCT110 02/M05 A3043 RMK AO2 SLP313 T00181052 10019 21006 57015

More Conditions Fewer Conditions

Pressure 30.46 in
Visibility 10.0 miles
Clouds Scattered Clouds 8000 ft
Scattered Clouds 11000 ft
Windchill 36 °F
Dew Point 25 °F
Humidity 65%
Rainfall 0.00 in
Snow Depth Not available.
UV 0 out of 12
Pollen 3.60 out of 12
Air Quality Not available.
Flu Activity Not available.
METAR KHOP 282358Z AUTO 06005KT 10SM SCT080 SCT110 02/M05 A3043 RMK AO2 SLP313 T00181052 10019 21006 57015

More Conditions Fewer Conditions

10-Day Weather Forecast

Almanac

Astronomy

Feb. 28, 2015 Rise Set
Actual Time
Civil Twilight
Nautical Twilight
Astronomical Twilight
Moon
Length of Visible Light
Length of Day
Tomorrow will be .
, % of the Moon is Illuminated

Today's Extremes

State Highs State Lows

Community

WunderPhotos

Upload Photos

1,801,176 photos uploaded!

WunderBlogs® & News

Nearby

Air Quality

  Air Quality AQ Index Pollutant
Not available.

Snow Depth

Station Depth Elevation

Earthquake Activity

City Distance Mag. Time & Date
Minimum magnitude displayed is 2.5.

Coastal Water Temperatures

Place Temperature

Nearby Weather Stations